createdAt,value
2017-11-09T00:01:57.142Z,97.57
2017-11-09T00:04:30.845Z,95.73
2017-11-09T00:06:58.460Z,93.07
2017-11-09T00:09:26.150Z,91.90
2017-11-09T00:11:53.750Z,102.97
2017-11-09T00:14:21.605Z,95.47
2017-11-09T00:16:49.236Z,98.50
2017-11-09T00:19:17.141Z,101.77
2017-11-09T00:21:44.763Z,94.70
2017-11-09T00:24:12.378Z,98.47
2017-11-09T00:26:39.991Z,99.40
2017-11-09T00:29:07.610Z,96.93
2017-11-09T00:31:35.552Z,101.47
2017-11-09T00:34:03.517Z,88.87
2017-11-09T00:36:31.247Z,110.77
2017-11-09T00:38:58.887Z,103.23
2017-11-09T00:41:26.506Z,98.20
2017-11-09T00:43:54.133Z,94.13
2017-11-09T00:46:21.755Z,87.53
2017-11-09T00:48:49.360Z,101.07
2017-11-09T00:51:16.997Z,90.70
2017-11-09T00:53:44.932Z,105.23
2017-11-09T00:56:12.553Z,97.07
2017-11-09T00:58:40.149Z,105.73
2017-11-09T01:01:07.770Z,96.37
2017-11-09T01:03:35.380Z,91.27
2017-11-09T01:06:03.000Z,102.23
2017-11-09T01:08:30.664Z,106.07
2017-11-09T01:10:58.266Z,95.17
2017-11-09T01:13:25.859Z,95.77
2017-11-09T01:15:53.482Z,102.10
2017-11-09T01:18:21.104Z,97.23
2017-11-09T01:20:48.746Z,103.20
2017-11-09T01:23:16.329Z,92.20
2017-11-09T01:25:43.946Z,114.07
2017-11-09T01:28:11.590Z,98.00
2017-11-09T01:30:39.228Z,100.20
2017-11-09T01:33:06.927Z,100.50
2017-11-09T01:35:34.519Z,99.70
2017-11-09T01:38:02.118Z,98.37
2017-11-09T01:40:30.603Z,98.33
2017-11-09T01:42:58.190Z,96.53
2017-11-09T01:45:25.830Z,101.00
2017-11-09T01:47:53.498Z,100.43
2017-11-09T01:50:21.094Z,92.50
2017-11-09T01:52:48.731Z,93.50
2017-11-09T01:55:16.334Z,93.60
2017-11-09T01:57:44.024Z,91.63
2017-11-09T02:00:11.617Z,88.47
2017-11-09T02:02:39.263Z,106.73
2017-11-09T02:05:06.905Z,93.00
2017-11-09T02:07:34.518Z,89.37
2017-11-09T02:10:02.165Z,97.17
2017-11-09T02:12:29.759Z,96.67
2017-11-09T02:14:57.386Z,96.13
2017-11-09T02:17:25.267Z,97.60
2017-11-09T02:19:52.916Z,95.03
2017-11-09T02:22:20.795Z,101.00
2017-11-09T02:24:48.402Z,102.50
2017-11-09T02:27:16.317Z,95.93
2017-11-09T02:29:44.219Z,100.80
2017-11-09T02:32:11.840Z,105.07
2017-11-09T02:34:39.736Z,103.47
2017-11-09T02:37:07.343Z,111.00
2017-11-09T02:39:34.966Z,105.70
2017-11-09T02:42:02.579Z,99.97
2017-11-09T02:44:30.174Z,96.50
2017-11-09T02:46:57.806Z,93.90
2017-11-09T02:49:25.403Z,98.63
2017-11-09T02:51:53.278Z,99.37
2017-11-09T02:54:28.688Z,103.50
2017-11-09T02:56:56.281Z,102.23
2017-11-09T02:59:23.929Z,118.27
2017-11-09T03:01:51.532Z,101.83
2017-11-09T03:04:19.127Z,105.63
2017-11-09T03:06:46.789Z,102.73
2017-11-09T03:09:14.405Z,96.23
2017-11-09T03:11:42.060Z,105.80
2017-11-09T03:14:09.646Z,91.40
2017-11-09T03:16:37.234Z,98.80
2017-11-09T03:19:05.153Z,106.37
2017-11-09T03:21:32.745Z,97.27
2017-11-09T03:24:00.387Z,99.87
2017-11-09T03:26:28.263Z,107.83
2017-11-09T03:28:56.110Z,98.43
2017-11-09T03:31:23.732Z,97.00
2017-11-09T03:33:51.637Z,104.30
2017-11-09T03:36:19.276Z,96.43
2017-11-09T03:38:46.871Z,95.23
2017-11-09T03:41:14.491Z,97.67
2017-11-09T03:43:42.109Z,94.60
2017-11-09T03:46:09.707Z,99.50
2017-11-09T03:48:37.352Z,106.80
2017-11-09T03:51:04.958Z,109.63
2017-11-09T03:53:32.835Z,91.63
2017-11-09T03:56:00.457Z,88.03
2017-11-09T03:58:28.382Z,94.77
2017-11-09T04:00:56.042Z,96.57
2017-11-09T04:03:23.640Z,103.43
2017-11-09T04:05:51.245Z,93.33
2017-11-09T04:08:18.885Z,96.07
2017-11-09T04:10:46.524Z,91.17
2017-11-09T04:13:14.188Z,97.33
2017-11-09T04:15:41.787Z,88.23
2017-11-09T04:18:09.464Z,94.37
2017-11-09T04:20:37.098Z,86.63
2017-11-09T04:23:04.706Z,94.07
2017-11-09T04:25:32.346Z,95.90
2017-11-09T04:27:59.990Z,94.40
2017-11-09T04:30:27.619Z,109.73
2017-11-09T04:32:55.264Z,100.80
2017-11-09T04:35:22.873Z,90.40
2017-11-09T04:37:50.525Z,108.10
2017-11-09T04:40:18.438Z,93.50
2017-11-09T04:42:46.035Z,104.30
2017-11-09T04:45:13.664Z,97.70
2017-11-09T04:47:41.254Z,100.80
2017-11-09T04:50:08.887Z,112.93
2017-11-09T04:52:36.517Z,99.53
2017-11-09T04:55:04.142Z,94.67
2017-11-09T04:57:31.754Z,89.60
2017-11-09T05:00:00.090Z,99.80
2017-11-09T05:02:27.890Z,95.53
2017-11-09T05:04:55.487Z,100.40
2017-11-09T05:07:23.114Z,104.87
2017-11-09T05:09:50.746Z,104.20
2017-11-09T05:12:18.391Z,105.57
2017-11-09T05:14:46.025Z,98.67
2017-11-09T05:17:13.998Z,102.80
2017-11-09T05:19:41.599Z,111.90
2017-11-09T05:22:09.263Z,94.77
2017-11-09T05:24:36.917Z,94.23
2017-11-09T05:27:04.859Z,86.83
2017-11-09T05:29:32.473Z,99.53
2017-11-09T05:32:00.086Z,90.47
2017-11-09T05:34:27.722Z,100.93
2017-11-09T05:36:55.349Z,91.77
2017-11-09T05:39:22.991Z,95.77
2017-11-09T05:41:50.606Z,96.47
2017-11-09T05:44:18.229Z,102.37
2017-11-09T05:46:45.901Z,111.37
2017-11-09T05:49:13.503Z,117.93
2017-11-09T05:51:41.164Z,102.00
2017-11-09T05:54:08.761Z,88.73
2017-11-09T05:56:36.358Z,97.33
2017-11-09T05:59:03.978Z,97.87
2017-11-09T06:01:31.573Z,101.47
2017-11-09T06:03:59.221Z,108.23
2017-11-09T06:06:26.880Z,96.93
2017-11-09T06:08:54.468Z,106.30
2017-11-09T06:11:22.588Z,99.10
2017-11-09T06:13:50.176Z,104.70
2017-11-09T06:16:17.849Z,100.23
2017-11-09T06:18:45.888Z,106.97
2017-11-09T06:21:13.489Z,101.80
2017-11-09T06:23:41.114Z,99.13
2017-11-09T06:26:08.718Z,95.33
2017-11-09T06:28:36.365Z,96.37
2017-11-09T06:31:03.969Z,99.03
2017-11-09T06:33:31.556Z,97.13
2017-11-09T06:35:59.434Z,100.30
2017-11-09T06:38:27.018Z,97.40
2017-11-09T06:40:54.658Z,104.20
2017-11-09T06:43:22.249Z,109.80
2017-11-09T06:45:49.837Z,94.77
2017-11-09T06:48:17.487Z,105.37
2017-11-09T06:50:45.116Z,105.90
2017-11-09T06:53:12.835Z,113.57
2017-11-09T06:55:40.726Z,109.20
2017-11-09T06:58:08.319Z,104.80
2017-11-09T07:00:35.949Z,100.00
2017-11-09T07:03:03.548Z,104.67
2017-11-09T07:05:31.207Z,105.87
2017-11-09T07:07:58.814Z,102.90
2017-11-09T07:10:26.415Z,97.70
2017-11-09T07:12:54.050Z,104.53
2017-11-09T07:15:21.647Z,95.73
2017-11-09T07:17:49.338Z,91.67
2017-11-09T07:20:16.933Z,93.80
2017-11-09T07:22:44.589Z,90.10
2017-11-09T07:25:12.483Z,96.93
2017-11-09T07:27:40.124Z,98.83
2017-11-09T07:30:07.776Z,102.83
2017-11-09T07:32:35.383Z,105.00
2017-11-09T07:35:03.015Z,97.73
2017-11-09T07:37:30.664Z,95.73
2017-11-09T07:39:58.246Z,91.63
2017-11-09T07:42:25.893Z,98.00
2017-11-09T07:44:53.492Z,95.13
2017-11-09T07:47:21.129Z,96.97
2017-11-09T07:49:48.767Z,98.87
2017-11-09T07:52:16.776Z,103.97
2017-11-09T07:54:44.746Z,99.80
2017-11-09T07:57:12.383Z,99.90
2017-11-09T07:59:39.991Z,89.20
2017-11-09T08:02:07.939Z,86.07
2017-11-09T08:04:36.526Z,101.10
2017-11-09T08:07:04.181Z,105.50
2017-11-09T08:09:31.974Z,95.73
2017-11-09T08:12:00.032Z,98.60
2017-11-09T08:14:27.869Z,106.83
2017-11-09T08:16:55.534Z,93.43
2017-11-09T08:19:23.162Z,106.43
2017-11-09T08:21:50.824Z,97.07
2017-11-09T08:24:19.872Z,91.13
2017-11-09T08:26:49.790Z,113.63
2017-11-09T08:29:21.241Z,106.77
2017-11-09T08:31:50.787Z,104.43
2017-11-09T08:34:18.427Z,105.37
2017-11-09T08:36:46.402Z,85.00
2017-11-09T08:39:14.053Z,90.87
2017-11-09T08:41:42.025Z,85.03
2017-11-09T08:44:09.674Z,93.03
2017-11-09T08:46:37.316Z,103.30
2017-11-09T08:49:04.995Z,99.70
2017-11-09T08:51:32.621Z,106.63
2017-11-09T08:54:00.233Z,89.70
2017-11-09T08:56:27.879Z,111.07
2017-11-09T08:58:55.480Z,105.53
2017-11-09T09:01:23.089Z,104.27
2017-11-09T09:03:50.734Z,104.07
2017-11-09T09:06:18.337Z,106.97
2017-11-09T09:08:45.986Z,118.23
2017-11-09T09:11:14.092Z,111.70
2017-11-09T09:13:41.754Z,109.27
2017-11-09T09:16:09.397Z,120.17
2017-11-09T09:18:37.384Z,107.73
2017-11-09T09:21:05.476Z,103.07
2017-11-09T09:23:33.158Z,110.80
2017-11-09T09:26:01.118Z,106.30
2017-11-09T09:28:44.361Z,108.37
2017-11-09T09:31:14.821Z,110.33
2017-11-09T09:33:45.575Z,98.47
2017-11-09T09:39:20.729Z,111.27
2017-11-09T09:41:48.333Z,92.13
2017-11-09T09:44:15.987Z,101.73
2017-11-09T09:46:43.673Z,90.63
2017-11-09T09:49:11.329Z,100.47
2017-11-09T09:51:38.933Z,87.50
2017-11-09T09:54:06.537Z,97.73
2017-11-09T09:56:34.192Z,90.60
2017-11-09T09:59:01.816Z,92.63
2017-11-09T10:01:29.484Z,96.93
2017-11-09T10:03:57.070Z,100.73
2017-11-09T10:06:24.682Z,106.53
2017-11-09T10:08:52.356Z,94.07
2017-11-09T10:11:19.970Z,92.67
2017-11-09T10:13:47.605Z,87.27
2017-11-09T10:16:15.251Z,106.77
2017-11-09T10:18:42.858Z,101.13
2017-11-09T10:21:10.901Z,89.10
2017-11-09T10:23:39.709Z,97.97
2017-11-09T10:26:07.737Z,89.27
2017-11-09T10:28:35.408Z,82.60
2017-11-09T10:31:03.060Z,104.07
2017-11-09T10:33:31.064Z,101.00
2017-11-09T10:35:58.686Z,89.13
2017-11-09T10:38:26.346Z,99.60
2017-11-09T10:40:53.950Z,86.07
2017-11-09T10:43:21.854Z,95.33
2017-11-09T10:45:49.515Z,99.60
2017-11-09T10:48:17.149Z,98.23
2017-11-09T10:50:44.816Z,89.10
2017-11-09T10:53:12.416Z,96.00
2017-11-09T10:55:40.005Z,94.87
2017-11-09T10:58:07.640Z,101.40
2017-11-09T11:00:40.947Z,110.17
2017-11-09T11:03:08.603Z,103.97
2017-11-09T11:05:36.203Z,110.30
2017-11-09T11:08:03.816Z,99.67
2017-11-09T11:10:31.477Z,114.97
2017-11-09T11:12:59.413Z,103.07
2017-11-09T11:15:27.050Z,104.17
2017-11-09T11:17:54.658Z,106.43
2017-11-09T11:20:22.635Z,105.97
2017-11-09T11:22:50.298Z,108.67
2017-11-09T11:25:18.553Z,109.47
2017-11-09T11:27:46.191Z,107.50
2017-11-09T11:30:13.816Z,93.90
2017-11-09T11:32:41.942Z,119.90
2017-11-09T11:35:10.198Z,109.30
2017-11-09T11:37:37.850Z,101.83
2017-11-09T11:40:05.774Z,98.13
2017-11-09T11:42:33.380Z,110.60
2017-11-09T11:45:00.990Z,100.53
2017-11-09T11:47:34.526Z,102.87
2017-11-09T11:50:02.145Z,105.00
2017-11-09T11:52:29.788Z,101.47
2017-11-09T11:54:57.397Z,96.20
2017-11-09T11:57:25.006Z,101.67
2017-11-09T11:59:52.636Z,103.90
2017-11-09T12:02:20.283Z,95.43
2017-11-09T12:04:52.930Z,98.33
2017-11-09T12:07:20.522Z,100.67
2017-11-09T12:09:48.145Z,110.77
2017-11-09T12:12:15.765Z,109.00
2017-11-09T12:14:43.364Z,113.83
2017-11-09T12:17:11.033Z,107.20
2017-11-09T12:19:38.816Z,102.60
2017-11-09T12:22:17.580Z,103.37
2017-11-09T12:24:55.068Z,108.13
2017-11-09T12:27:22.963Z,108.27
2017-11-09T12:29:50.628Z,103.53
2017-11-09T12:32:18.617Z,97.97
2017-11-09T12:34:52.323Z,95.60
2017-11-09T12:37:19.914Z,91.87
2017-11-09T12:40:07.694Z,105.43
2017-11-09T12:42:35.308Z,97.03
2017-11-09T12:45:10.469Z,108.70
2017-11-09T12:47:41.566Z,90.60
2017-11-09T12:50:09.194Z,107.00
2017-11-09T12:52:36.991Z,98.00
2017-11-09T12:55:11.118Z,106.90
2017-11-09T12:57:38.768Z,110.03
2017-11-09T13:00:11.273Z,108.23
2017-11-09T13:02:40.796Z,99.07
2017-11-09T13:05:14.115Z,108.27
2017-11-09T13:07:47.615Z,99.87
2017-11-09T13:10:15.803Z,110.97
2017-11-09T13:12:43.508Z,97.50
2017-11-09T13:15:11.130Z,93.90
2017-11-09T13:17:38.740Z,113.70
2017-11-09T13:20:06.359Z,106.77
2017-11-09T13:22:34.025Z,117.90
2017-11-09T13:25:01.659Z,103.60
2017-11-09T13:27:29.398Z,120.87
2017-11-09T13:29:57.004Z,120.33
2017-11-09T13:35:03.059Z,104.93
2017-11-09T13:37:30.688Z,107.20
2017-11-09T13:39:58.794Z,108.47
2017-11-09T13:42:26.411Z,114.43
2017-11-09T13:44:54.074Z,114.37
2017-11-09T13:47:21.683Z,126.20
2017-11-09T13:49:49.602Z,124.37
2017-11-09T13:52:17.252Z,122.53
2017-11-09T13:54:44.892Z,119.07
2017-11-09T13:57:13.110Z,107.73
2017-11-09T13:59:40.782Z,116.13
2017-11-09T14:02:11.099Z,122.70
2017-11-09T14:04:41.260Z,113.17
2017-11-09T14:07:09.642Z,127.57
2017-11-09T14:09:37.587Z,124.67
2017-11-09T14:12:07.520Z,119.50
2017-11-09T14:14:35.406Z,113.73
2017-11-09T14:17:03.081Z,103.50
2017-11-09T14:19:30.730Z,112.30
2017-11-09T14:21:58.450Z,134.30
2017-11-09T14:24:26.048Z,113.20
2017-11-09T14:26:54.089Z,121.60
2017-11-09T14:29:21.804Z,130.43
2017-11-09T14:31:51.786Z,113.00
2017-11-09T14:34:19.582Z,92.60
2017-11-09T14:36:48.317Z,110.33
2017-11-09T14:39:16.123Z,125.33
2017-11-09T14:41:43.971Z,108.63
2017-11-09T14:44:12.658Z,109.57
2017-11-09T14:46:40.314Z,122.97
2017-11-09T14:49:07.965Z,118.60
2017-11-09T14:51:35.614Z,124.23
2017-11-09T14:54:03.504Z,116.23
2017-11-09T14:56:31.268Z,118.27
2017-11-09T14:58:58.937Z,128.13
2017-11-09T15:01:27.562Z,118.43
2017-11-09T15:03:59.051Z,122.23
2017-11-09T15:06:27.170Z,121.57
2017-11-09T15:08:54.890Z,136.90
2017-11-09T15:11:23.955Z,120.17
2017-11-09T15:13:52.169Z,126.17
2017-11-09T15:16:20.045Z,124.80
2017-11-09T15:18:48.467Z,134.13
2017-11-09T15:21:16.083Z,136.07
2017-11-09T15:23:43.726Z,127.80
2017-11-09T15:26:11.340Z,131.10
2017-11-09T15:28:38.972Z,135.40
2017-11-09T15:31:06.838Z,133.63
2017-11-09T15:33:34.440Z,126.80
2017-11-09T15:36:08.825Z,139.17
2017-11-09T15:38:42.473Z,127.30
2017-11-09T15:41:15.316Z,125.80
2017-11-09T15:43:43.131Z,143.50
2017-11-09T15:46:10.743Z,155.33
2017-11-09T15:48:38.682Z,133.20
2017-11-09T15:51:06.307Z,143.53
2017-11-09T15:53:33.942Z,142.10
2017-11-09T15:56:07.731Z,145.07
2017-11-09T15:58:43.581Z,139.87
2017-11-09T16:01:11.579Z,152.83
2017-11-09T16:03:39.195Z,149.40
2017-11-09T16:06:06.803Z,158.87
2017-11-09T16:08:34.446Z,160.17
2017-11-09T16:11:02.239Z,158.80
2017-11-09T16:13:30.186Z,123.40
2017-11-09T16:15:57.811Z,151.37
2017-11-09T16:18:25.512Z,140.80
2017-11-09T16:20:53.195Z,151.90
2017-11-09T16:23:20.796Z,147.73
2017-11-09T16:25:48.521Z,156.30
2017-11-09T16:28:16.119Z,141.90
2017-11-09T16:30:43.774Z,145.80
2017-11-09T16:33:11.663Z,141.07
2017-11-09T16:35:39.323Z,143.87
2017-11-09T16:38:07.244Z,154.70
2017-11-09T16:40:34.950Z,141.80
2017-11-09T16:43:02.581Z,148.53
2017-11-09T16:45:30.179Z,155.33
2017-11-09T16:47:57.859Z,166.73
2017-11-09T16:50:25.555Z,154.53
2017-11-09T16:52:57.113Z,147.30
2017-11-09T16:55:24.713Z,146.17
2017-11-09T16:57:52.621Z,150.23
2017-11-09T17:00:20.622Z,152.70
2017-11-09T17:02:48.574Z,147.70
2017-11-09T17:05:16.542Z,133.37
2017-11-09T17:07:44.171Z,136.93
2017-11-09T17:10:11.779Z,143.50
2017-11-09T17:12:39.425Z,152.70
2017-11-09T17:15:10.874Z,140.30
2017-11-09T17:17:38.490Z,148.10
2017-11-09T17:20:06.112Z,146.17
2017-11-09T17:22:34.032Z,152.73
2017-11-09T17:25:01.671Z,146.40
2017-11-09T17:27:29.312Z,153.03
2017-11-09T17:29:56.963Z,144.07
2017-11-09T17:32:24.574Z,140.33
2017-11-09T17:34:52.206Z,162.90
2017-11-09T17:37:19.849Z,167.27
2017-11-09T17:39:48.330Z,165.17
2017-11-09T17:42:18.949Z,177.40
2017-11-09T17:44:46.546Z,163.67
2017-11-09T17:47:14.173Z,191.47
2017-11-09T17:49:41.819Z,176.63
2017-11-09T17:52:09.411Z,162.00
2017-11-09T17:54:37.052Z,159.43
2017-11-09T17:57:04.718Z,185.23
2017-11-09T18:02:29.448Z,167.00
2017-11-09T18:04:57.958Z,164.23
2017-11-09T18:07:25.565Z,179.43
2017-11-09T18:09:53.245Z,171.10
2017-11-09T18:12:20.906Z,171.70
2017-11-09T18:14:48.555Z,160.47
2017-11-09T18:17:16.227Z,162.53
2017-11-09T18:19:44.405Z,178.13
2017-11-09T18:22:12.095Z,181.50
2017-11-09T18:24:39.751Z,172.90
2017-11-09T18:27:07.370Z,189.83
2017-11-09T18:29:35.046Z,181.93
2017-11-09T18:32:02.715Z,176.23
2017-11-09T18:34:30.355Z,191.87
2017-11-09T18:36:58.020Z,186.57
2017-11-09T18:39:25.645Z,184.50
2017-11-09T18:41:53.252Z,165.23
2017-11-09T18:44:21.254Z,184.63
2017-11-09T18:46:48.877Z,180.87
2017-11-09T18:49:16.575Z,187.37
2017-11-09T18:51:44.328Z,173.50
2017-11-09T18:54:11.990Z,179.33
2017-11-09T18:56:39.634Z,202.80
2017-11-09T18:59:12.797Z,177.97
2017-11-09T19:01:40.440Z,183.07
2017-11-09T19:04:08.064Z,195.10
2017-11-09T19:06:35.972Z,178.90
2017-11-09T19:09:03.642Z,177.13
2017-11-09T19:11:31.264Z,172.50
2017-11-09T19:13:58.913Z,181.40
2017-11-09T19:16:26.966Z,163.20
2017-11-09T19:18:54.690Z,183.13
2017-11-09T19:21:22.304Z,179.83
2017-11-09T19:23:49.929Z,169.67
2017-11-09T19:26:17.572Z,207.50
2017-11-09T19:28:45.349Z,188.33
2017-11-09T19:31:13.024Z,180.70
2017-11-09T19:33:40.682Z,179.33
2017-11-09T19:36:08.328Z,174.57
2017-11-09T19:38:36.297Z,170.57
2017-11-09T19:41:03.931Z,196.40
2017-11-09T19:43:31.721Z,187.63
2017-11-09T19:45:59.387Z,160.07
2017-11-09T19:48:27.065Z,182.33
2017-11-09T19:50:54.706Z,193.83
2017-11-09T19:53:22.384Z,162.60
2017-11-09T19:55:50.068Z,183.60
2017-11-09T19:58:17.826Z,166.43
2017-11-09T20:00:45.474Z,172.90
2017-11-09T20:03:13.156Z,181.13
2017-11-09T20:05:41.108Z,170.70
2017-11-09T20:08:08.844Z,169.73
2017-11-09T20:10:36.468Z,168.77
2017-11-09T20:13:04.112Z,168.77
2017-11-09T20:15:31.778Z,163.50
2017-11-09T20:17:59.449Z,179.43
2017-11-09T20:20:28.972Z,154.80
2017-11-09T20:22:56.628Z,159.17
2017-11-09T20:25:24.261Z,166.40
2017-11-09T20:27:51.931Z,173.40
2017-11-09T20:30:19.558Z,179.67
2017-11-09T20:32:47.251Z,149.43
2017-11-09T20:35:14.911Z,161.13
2017-11-09T20:37:42.558Z,173.87
2017-11-09T20:40:10.204Z,176.20
2017-11-09T20:42:37.941Z,155.33
2017-11-09T20:45:05.623Z,162.47
2017-11-09T20:47:33.538Z,157.57
2017-11-09T20:50:02.078Z,143.87
2017-11-09T20:52:29.778Z,150.47
2017-11-09T20:54:57.413Z,145.80
2017-11-09T20:57:25.132Z,155.87
2017-11-09T20:59:52.786Z,149.63
2017-11-09T21:02:20.451Z,153.27
2017-11-09T21:04:48.546Z,145.80
2017-11-09T21:07:16.186Z,147.10
2017-11-09T21:09:45.465Z,151.10
2017-11-09T21:12:13.439Z,130.77
2017-11-09T21:14:41.033Z,146.53
2017-11-09T21:17:08.935Z,136.03
2017-11-09T21:19:36.681Z,126.07
2017-11-09T21:22:04.357Z,140.83
2017-11-09T21:24:32.003Z,143.20
2017-11-09T21:26:59.604Z,154.57
2017-11-09T21:29:27.262Z,138.33
2017-11-09T21:31:54.894Z,147.37
2017-11-09T21:34:22.554Z,156.87
2017-11-09T21:36:50.149Z,135.13
2017-11-09T21:39:18.233Z,136.10
2017-11-09T21:41:45.947Z,141.67
2017-11-09T21:44:13.876Z,126.20
2017-11-09T21:46:41.592Z,142.20
2017-11-09T21:49:09.270Z,138.77
2017-11-09T21:51:36.897Z,129.33
2017-11-09T21:54:04.628Z,129.77
2017-11-09T21:56:32.290Z,136.20
2017-11-09T21:58:59.926Z,142.63
2017-11-09T22:01:27.548Z,132.07
2017-11-09T22:03:55.510Z,147.63
2017-11-09T22:06:23.225Z,134.90
2017-11-09T22:08:50.838Z,143.07
2017-11-09T22:11:18.496Z,123.43
2017-11-09T22:13:46.141Z,147.47
2017-11-09T22:16:13.736Z,140.90
2017-11-09T22:18:41.374Z,133.87
2017-11-09T22:21:08.973Z,154.47
2017-11-09T22:23:36.627Z,138.53
2017-11-09T22:26:04.293Z,136.23
2017-11-09T22:28:31.903Z,145.37
2017-11-09T22:30:59.566Z,128.63
2017-11-09T22:33:27.174Z,126.23
2017-11-09T22:35:54.808Z,122.67
2017-11-09T22:38:22.448Z,132.00
2017-11-09T22:40:50.054Z,123.83
2017-11-09T22:43:17.690Z,110.60
2017-11-09T22:45:45.369Z,118.80
2017-11-09T22:48:13.026Z,134.07
2017-11-09T22:50:40.733Z,124.00
2017-11-09T22:53:09.994Z,110.70
2017-11-09T22:55:37.637Z,114.40
2017-11-09T22:58:05.238Z,124.83
2017-11-09T23:00:32.885Z,114.03
2017-11-09T23:03:00.482Z,108.23
2017-11-09T23:05:28.092Z,119.43
2017-11-09T23:07:55.731Z,116.93
2017-11-09T23:10:23.365Z,128.07
2017-11-09T23:12:51.002Z,107.07
2017-11-09T23:15:18.629Z,97.77
2017-11-09T23:17:46.298Z,117.30
2017-11-09T23:20:14.268Z,113.03
2017-11-09T23:22:42.155Z,113.43
2017-11-09T23:25:09.874Z,105.37
2017-11-09T23:27:37.497Z,101.87
2017-11-09T23:30:05.103Z,117.20
2017-11-09T23:32:32.992Z,97.07
2017-11-09T23:35:00.659Z,100.77
2017-11-09T23:37:28.645Z,91.60
2017-11-09T23:39:56.277Z,107.33
2017-11-09T23:42:23.884Z,100.57
2017-11-09T23:44:51.516Z,94.07
2017-11-09T23:47:19.154Z,92.73
2017-11-09T23:49:46.812Z,98.43
2017-11-09T23:52:14.437Z,98.07
2017-11-09T23:54:42.070Z,89.17
2017-11-09T23:57:09.726Z,106.17
2017-11-09T23:59:37.341Z,102.93
